Time;durP1;ratioP1;P1;durP2;ratioP2;P2;SDS_P1;SDS_P2;PMS_P1;PMS_P2;Temp;Humidity;BMP_temperature;BMP_pressure;BME280_temperature;BME280_humidity;BME280_pressure;Samples;Min_cycle;Max_cycle;Signal;HPM_P1;HPM_P2
2022/03/29 00:00:33;;;;;;;39.53;21.63;;;7.50;99.90;;;;;;4964168;28;20070;-78
2022/03/29 00:02:59;;;;;;;40.90;22.08;;;7.50;99.90;;;;;;4973662;28;20061;-78
2022/03/29 00:05:26;;;;;;;37.60;20.80;;;7.50;99.90;;;;;;4962141;28;20034;-77
2022/03/29 00:07:52;;;;;;;46.05;21.58;;;7.50;99.90;;;;;;4965367;28;20243;-78
2022/03/29 00:10:17;;;;;;;40.65;20.98;;;7.50;99.90;;;;;;4981219;28;20112;-78
2022/03/29 00:12:43;;;;;;;37.45;21.20;;;7.50;99.90;;;;;;4967586;28;20490;-78
2022/03/29 00:15:09;;;;;;;39.00;21.17;;;7.50;99.90;;;;;;4984839;28;20034;-78
2022/03/29 00:17:35;;;;;;;45.75;21.70;;;7.50;99.90;;;;;;4982709;28;20079;-78
2022/03/29 00:20:02;;;;;;;41.88;22.35;;;7.50;99.90;;;;;;4982698;28;20050;-78
2022/03/29 00:22:27;;;;;;;39.53;21.40;;;7.50;99.90;;;;;;4968896;28;20026;-78
2022/03/29 00:24:54;;;;;;;40.78;23.40;;;7.50;99.90;;;;;;4968375;28;20056;-78
2022/03/29 00:27:19;;;;;;;44.78;21.52;;;7.50;99.90;;;;;;4950627;28;20052;-78
2022/03/29 00:29:45;;;;;;;40.85;22.02;;;7.50;99.90;;;;;;4984348;28;20483;-78
2022/03/29 00:32:11;;;;;;;45.45;22.30;;;7.50;99.90;;;;;;4985136;28;20300;-78
2022/03/29 00:34:37;;;;;;;44.60;20.95;;;7.50;99.90;;;;;;4986277;28;20062;-77
2022/03/29 00:37:06;;;;;;;45.60;21.45;;;7.60;99.90;;;;;;4967792;28;20033;-78
2022/03/29 00:39:33;;;;;;;44.55;21.15;;;7.50;99.90;;;;;;4986722;28;20118;-78
2022/03/29 00:42:00;;;;;;;37.15;20.60;;;7.40;99.90;;;;;;4965749;28;20030;-78
2022/03/29 00:44:36;;;;;;;37.83;20.73;;;7.40;99.90;;;;;;4985127;28;20026;-78
2022/03/29 00:47:02;;;;;;;40.08;20.63;;;7.40;99.90;;;;;;4983981;28;20073;-78
2022/03/29 00:49:28;;;;;;;45.45;20.70;;;7.50;99.90;;;;;;4972292;28;20053;-78
2022/03/29 00:51:58;;;;;;;41.22;22.10;;;7.50;99.90;;;;;;4995273;28;20739;-78
2022/03/29 00:54:37;;;;;;;43.03;20.45;;;7.50;99.90;;;;;;4977138;28;20031;-78
2022/03/29 00:57:04;;;;;;;40.55;20.00;;;7.50;99.90;;;;;;4981401;28;20031;-78
2022/03/29 00:59:30;;;;;;;41.28;20.90;;;7.50;99.90;;;;;;4990910;28;20023;-78
2022/03/29 01:01:57;;;;;;;40.45;19.45;;;7.40;99.90;;;;;;4972264;28;20039;-78
2022/03/29 01:04:26;;;;;;;41.67;20.15;;;7.40;99.90;;;;;;4966816;28;20105;-78
2022/03/29 01:06:54;;;;;;;39.53;19.27;;;7.40;99.90;;;;;;4972854;28;20030;-78
2022/03/29 01:09:20;;;;;;;39.40;19.80;;;7.40;99.90;;;;;;4984203;28;20030;-78
2022/03/29 01:11:45;;;;;;;34.20;18.27;;;7.40;99.90;;;;;;4969265;28;20081;-77
2022/03/29 01:14:11;;;;;;;38.85;20.13;;;7.50;99.90;;;;;;4966331;28;20054;-78
2022/03/29 01:19:21;;;;;;;35.70;19.42;;;7.50;99.90;;;;;;4981863;28;20483;-78
2022/03/29 01:22:01;;;;;;;35.75;18.00;;;7.50;99.90;;;;;;4968056;28;20114;-78
2022/03/29 01:24:28;;;;;;;35.70;18.17;;;7.40;99.90;;;;;;4954636;28;20037;-77
2022/03/29 01:26:57;;;;;;;35.33;17.33;;;7.40;99.90;;;;;;4984080;28;20438;-77
2022/03/29 01:29:23;;;;;;;36.08;17.40;;;7.50;99.90;;;;;;4983867;28;20584;-78
2022/03/29 01:31:50;;;;;;;35.63;17.17;;;7.50;99.90;;;;;;4964633;28;20117;-78
2022/03/29 01:34:19;;;;;;;37.63;17.40;;;7.50;99.90;;;;;;4965955;28;20057;-78
2022/03/29 01:36:46;;;;;;;35.00;18.02;;;7.50;99.90;;;;;;4981750;28;20101;-78
2022/03/29 01:39:12;;;;;;;38.88;18.85;;;7.50;99.90;;;;;;4969220;28;20058;-78
2022/03/29 01:41:40;;;;;;;33.95;17.45;;;7.50;99.90;;;;;;4967402;28;20544;-78
2022/03/29 01:44:07;;;;;;;39.17;17.67;;;7.50;99.90;;;;;;4967784;28;20106;-78
2022/03/29 01:46:33;;;;;;;35.50;18.40;;;7.50;99.90;;;;;;4966010;28;20018;-78
2022/03/29 01:49:00;;;;;;;37.35;17.52;;;7.50;99.90;;;;;;4965339;28;20552;-78
2022/03/29 01:51:26;;;;;;;38.33;18.13;;;7.40;99.90;;;;;;4964705;28;20177;-78
2022/03/29 01:53:54;;;;;;;34.33;17.20;;;7.40;99.90;;;;;;4966611;28;20518;-78
2022/03/29 01:56:20;;;;;;;36.00;18.40;;;7.40;99.90;;;;;;4966590;28;20082;-79
2022/03/29 01:58:45;;;;;;;35.10;17.65;;;7.40;99.90;;;;;;4983938;28;20338;-78
2022/03/29 02:01:12;;;;;;;34.00;16.02;;;7.50;99.90;;;;;;4982375;28;20050;-79
2022/03/29 02:03:39;;;;;;;37.20;17.23;;;7.50;99.90;;;;;;4983056;28;20053;-79
2022/03/29 02:06:05;;;;;;;34.80;16.52;;;7.50;99.90;;;;;;4980867;28;20255;-78
2022/03/29 02:08:30;;;;;;;34.13;17.10;;;7.50;99.90;;;;;;4970503;28;20487;-78
2022/03/29 02:10:56;;;;;;;29.38;14.32;;;7.50;99.90;;;;;;4981598;28;20043;-78
2022/03/29 02:13:22;;;;;;;34.50;16.33;;;7.50;99.90;;;;;;4966078;28;20422;-78
2022/03/29 02:15:48;;;;;;;31.70;15.05;;;7.50;99.90;;;;;;4966904;28;20886;-80
2022/03/29 02:18:14;;;;;;;33.42;14.93;;;7.50;99.90;;;;;;4955013;28;20041;-79
2022/03/29 02:20:41;;;;;;;30.92;16.20;;;7.50;99.90;;;;;;4967965;28;20026;-78
2022/03/29 02:23:08;;;;;;;34.35;16.20;;;7.50;99.90;;;;;;4968676;28;20697;-79
2022/03/29 02:25:35;;;;;;;35.88;16.33;;;7.60;99.90;;;;;;4985557;28;20030;-78
2022/03/29 02:28:02;;;;;;;32.35;14.90;;;7.50;99.90;;;;;;4967245;28;20506;-77
2022/03/29 02:30:28;;;;;;;28.88;16.25;;;7.50;99.90;;;;;;4981685;28;20072;-78
2022/03/29 02:32:55;;;;;;;30.20;16.30;;;7.50;99.90;;;;;;4970560;28;20026;-77
2022/03/29 02:35:20;;;;;;;31.48;15.98;;;7.50;99.90;;;;;;4965273;28;20046;-78
2022/03/29 02:37:46;;;;;;;30.20;15.75;;;7.50;99.90;;;;;;4983285;28;20030;-78
2022/03/29 02:40:13;;;;;;;32.20;16.25;;;7.50;99.90;;;;;;4968723;28;20022;-78
2022/03/29 02:42:43;;;;;;;27.85;15.35;;;7.50;99.90;;;;;;4968401;28;20038;-78
2022/03/29 02:45:15;;;;;;;38.70;16.25;;;7.50;99.90;;;;;;4983206;28;20068;-78
2022/03/29 02:47:46;;;;;;;32.80;16.08;;;7.60;99.90;;;;;;4944314;28;20585;-78
2022/03/29 02:50:13;;;;;;;33.42;16.60;;;7.60;99.90;;;;;;4979398;28;20068;-77
2022/03/29 02:52:43;;;;;;;38.00;16.90;;;7.60;99.90;;;;;;4981873;28;20034;-78
2022/03/29 02:55:09;;;;;;;29.30;15.18;;;7.60;99.90;;;;;;4983192;28;20616;-76
2022/03/29 02:57:34;;;;;;;29.77;14.07;;;7.50;99.90;;;;;;4966392;28;20113;-77
2022/03/29 03:00:01;;;;;;;33.38;14.27;;;7.50;99.90;;;;;;4981773;28;20165;-77
2022/03/29 03:02:26;;;;;;;30.35;13.65;;;7.40;99.90;;;;;;4980729;28;20109;-77
2022/03/29 03:04:52;;;;;;;28.42;12.55;;;7.30;99.90;;;;;;4982794;28;20109;-78
2022/03/29 03:07:17;;;;;;;27.00;11.40;;;7.30;99.90;;;;;;4961728;28;20503;-78
2022/03/29 03:09:43;;;;;;;24.95;11.35;;;7.30;99.90;;;;;;4963166;28;20088;-78
2022/03/29 03:12:09;;;;;;;22.35;10.13;;;7.20;99.90;;;;;;4983186;28;20082;-77
2022/03/29 03:14:35;;;;;;;26.65;10.27;;;7.10;99.90;;;;;;4949552;28;20054;-80
2022/03/29 03:17:00;;;;;;;24.25;11.07;;;7.00;99.90;;;;;;4965224;28;20550;-77
2022/03/29 03:19:26;;;;;;;22.60;10.45;;;6.90;99.90;;;;;;4963962;28;20077;-78
2022/03/29 03:21:52;;;;;;;18.63;9.93;;;6.90;99.90;;;;;;4981372;28;20023;-78
2022/03/29 03:24:17;;;;;;;18.38;8.25;;;6.90;99.90;;;;;;4962706;28;20577;-78
2022/03/29 03:26:43;;;;;;;20.48;8.88;;;6.90;99.90;;;;;;4981654;28;20072;-77
2022/03/29 03:29:09;;;;;;;17.20;7.68;;;6.90;99.90;;;;;;4981447;28;20062;-78
2022/03/29 03:31:34;;;;;;;21.42;8.63;;;6.80;99.90;;;;;;4965066;28;20459;-78
2022/03/29 03:34:00;;;;;;;20.65;7.88;;;6.80;99.90;;;;;;4967512;28;20034;-77
2022/03/29 03:36:27;;;;;;;15.60;6.63;;;6.70;99.90;;;;;;4953925;28;20042;-79
2022/03/29 03:38:53;;;;;;;22.10;7.45;;;6.70;99.90;;;;;;4965904;28;20030;-78
2022/03/29 03:41:19;;;;;;;16.95;6.10;;;6.60;99.90;;;;;;4976272;28;20165;-79
2022/03/29 03:43:44;;;;;;;17.23;7.45;;;6.60;99.90;;;;;;4964304;28;20026;-78
2022/03/29 03:46:10;;;;;;;23.95;7.18;;;6.60;99.90;;;;;;4987349;28;20034;-78
2022/03/29 03:48:36;;;;;;;23.63;7.03;;;6.50;99.90;;;;;;4964647;28;20038;-78
2022/03/29 03:51:02;;;;;;;18.85;6.47;;;6.50;99.90;;;;;;4967223;28;20046;-78
2022/03/29 03:53:27;;;;;;;17.13;6.05;;;6.50;99.90;;;;;;4964948;28;20026;-79
2022/03/29 03:55:53;;;;;;;20.83;6.80;;;6.40;99.90;;;;;;4984396;28;20441;-79
2022/03/29 03:58:19;;;;;;;23.58;6.28;;;6.40;99.90;;;;;;4966495;28;20038;-78
2022/03/29 04:00:44;;;;;;;18.05;5.40;;;6.30;99.90;;;;;;4980111;28;20034;-78
2022/03/29 04:03:10;;;;;;;23.27;5.68;;;6.40;99.90;;;;;;4966845;28;20402;-77
2022/03/29 04:05:36;;;;;;;20.27;5.10;;;6.40;99.90;;;;;;4982600;28;20038;-78
2022/03/29 04:08:03;;;;;;;18.50;4.75;;;6.30;99.90;;;;;;4968650;28;20077;-78
2022/03/29 04:10:28;;;;;;;23.33;4.57;;;6.30;99.90;;;;;;4967098;28;20610;-78
2022/03/29 04:12:54;;;;;;;23.50;5.20;;;6.20;99.90;;;;;;4984451;28;20121;-78
2022/03/29 04:15:20;;;;;;;30.10;6.03;;;6.20;99.90;;;;;;4983672;28;20029;-78
2022/03/29 04:17:45;;;;;;;24.02;4.85;;;6.20;99.90;;;;;;4966692;28;20712;-77
2022/03/29 04:20:11;;;;;;;24.38;4.65;;;6.20;99.90;;;;;;4967965;28;20487;-78
2022/03/29 04:22:37;;;;;;;23.00;4.55;;;6.10;99.90;;;;;;4952930;28;20037;-78
2022/03/29 04:25:03;;;;;;;18.90;5.35;;;6.20;99.90;;;;;;4971350;28;20026;-78
2022/03/29 04:27:28;;;;;;;30.15;5.35;;;6.20;99.90;;;;;;4950955;28;20517;-77
2022/03/29 04:29:54;;;;;;;26.95;5.45;;;6.20;99.90;;;;;;4980851;28;20030;-78
2022/03/29 04:32:19;;;;;;;28.50;6.50;;;6.10;99.90;;;;;;4971371;28;20549;-78
2022/03/29 04:34:46;;;;;;;19.13;6.00;;;6.10;99.90;;;;;;4972573;28;20030;-77
2022/03/29 04:37:12;;;;;;;19.40;4.22;;;6.10;99.90;;;;;;4986823;28;20054;-78
2022/03/29 04:39:40;;;;;;;28.90;5.20;;;6.10;99.90;;;;;;4984742;28;20065;-79
2022/03/29 04:42:06;;;;;;;32.13;6.15;;;6.00;99.90;;;;;;4988465;28;20053;-79
2022/03/29 04:44:34;;;;;;;32.05;5.10;;;5.90;99.90;;;;;;4966760;28;20022;-78
2022/03/29 04:47:00;;;;;;;24.38;4.82;;;5.90;99.90;;;;;;4955211;28;20026;-78
2022/03/29 04:49:26;;;;;;;26.08;6.03;;;5.90;99.90;;;;;;4964845;28;20040;-77
2022/03/29 04:51:51;;;;;;;22.98;4.45;;;5.80;99.90;;;;;;4953957;28;20406;-78
2022/03/29 04:54:17;;;;;;;21.55;4.15;;;5.80;99.90;;;;;;4980593;28;20034;-77
2022/03/29 04:56:43;;;;;;;24.27;4.47;;;5.80;99.90;;;;;;4963535;28;20022;-79
2022/03/29 04:59:09;;;;;;;26.55;4.22;;;5.80;99.90;;;;;;4980243;28;20041;-78
2022/03/29 05:01:36;;;;;;;18.10;3.92;;;5.70;99.90;;;;;;4979851;28;20762;-79
2022/03/29 05:04:03;;;;;;;29.80;4.88;;;5.70;99.90;;;;;;4983021;28;20512;-79
2022/03/29 05:06:29;;;;;;;20.63;4.45;;;5.70;99.90;;;;;;4986211;28;20042;-78
2022/03/29 05:08:55;;;;;;;28.00;4.75;;;5.60;99.90;;;;;;4969173;28;20027;-80
2022/03/29 05:11:20;;;;;;;19.13;4.35;;;5.60;99.90;;;;;;4954440;28;20037;-76
2022/03/29 05:13:46;;;;;;;20.20;4.05;;;5.60;99.90;;;;;;4967504;28;20601;-81
2022/03/29 05:16:11;;;;;;;20.10;4.00;;;5.70;99.90;;;;;;4946476;28;20027;-78
2022/03/29 05:18:37;;;;;;;23.05;4.13;;;5.60;99.90;;;;;;4965486;28;20038;-78
2022/03/29 05:21:04;;;;;;;24.52;4.38;;;5.60;99.90;;;;;;4982005;28;20072;-79
2022/03/29 05:23:29;;;;;;;20.63;3.80;;;5.60;99.90;;;;;;4966169;28;20030;-78
2022/03/29 05:25:56;;;;;;;22.65;4.18;;;5.50;99.90;;;;;;4985132;28;20080;-78
2022/03/29 05:28:22;;;;;;;26.30;4.85;;;5.50;99.90;;;;;;4965835;28;20034;-77
2022/03/29 05:30:49;;;;;;;21.63;4.63;;;5.50;99.90;;;;;;4966760;28;20053;-78
2022/03/29 05:33:16;;;;;;;24.92;4.45;;;5.50;99.90;;;;;;4965379;28;20033;-77
2022/03/29 05:35:43;;;;;;;26.80;5.28;;;5.50;99.90;;;;;;4987150;28;20077;-77
2022/03/29 05:38:10;;;;;;;28.40;4.15;;;5.50;99.90;;;;;;4967575;28;20066;-78
2022/03/29 05:40:37;;;;;;;19.95;3.58;;;5.40;99.90;;;;;;4978419;28;20483;-78
2022/03/29 05:43:02;;;;;;;28.20;4.30;;;5.40;99.90;;;;;;4967630;28;20442;-78
2022/03/29 05:45:29;;;;;;;19.23;3.47;;;5.50;99.90;;;;;;4982611;28;20022;-78
2022/03/29 05:50:39;;;;;;;25.23;4.32;;;5.40;99.90;;;;;;4984588;28;20105;-78
2022/03/29 05:53:05;;;;;;;23.35;3.60;;;5.40;99.90;;;;;;4950200;28;20023;-78
2022/03/29 05:55:31;;;;;;;18.55;3.65;;;5.40;99.90;;;;;;4982285;28;20023;-78
2022/03/29 05:57:56;;;;;;;23.20;3.78;;;5.40;99.90;;;;;;4964426;28;20037;-77
2022/03/29 06:00:23;;;;;;;24.27;4.32;;;5.50;99.90;;;;;;4954456;28;20027;-77
2022/03/29 06:02:50;;;;;;;23.23;3.60;;;5.60;99.90;;;;;;4990102;28;20038;-76
2022/03/29 06:05:16;;;;;;;23.48;4.18;;;5.60;99.90;;;;;;4983131;28;20030;-78
2022/03/29 06:07:41;;;;;;;27.25;3.90;;;5.60;99.90;;;;;;4983117;28;20023;-77
2022/03/29 06:10:08;;;;;;;21.85;3.47;;;5.60;99.90;;;;;;4989936;28;20038;-79
2022/03/29 06:12:36;;;;;;;23.25;4.32;;;5.70;99.90;;;;;;4991278;28;20089;-78
2022/03/29 06:15:08;;;;;;;19.98;3.72;;;5.80;99.90;;;;;;4985688;28;20030;-78
2022/03/29 06:17:35;;;;;;;27.25;3.60;;;5.80;99.90;;;;;;4983639;28;20038;-78
2022/03/29 06:20:03;;;;;;;20.92;3.67;;;5.80;99.90;;;;;;4967813;28;20035;-78
2022/03/29 06:22:31;;;;;;;19.48;3.22;;;5.90;99.90;;;;;;4985117;28;20027;-78
2022/03/29 06:24:58;;;;;;;18.08;3.85;;;5.90;99.90;;;;;;4971236;28;20034;-78
2022/03/29 06:27:25;;;;;;;24.73;3.80;;;6.00;99.90;;;;;;4965476;28;20035;-79
2022/03/29 06:29:52;;;;;;;24.13;4.97;;;5.90;99.90;;;;;;4989108;28;20060;-78
2022/03/29 06:32:19;;;;;;;19.85;3.40;;;5.90;99.90;;;;;;4984386;28;20037;-78
2022/03/29 06:34:45;;;;;;;21.50;3.72;;;6.00;99.90;;;;;;4981475;28;20022;-78
2022/03/29 06:37:11;;;;;;;18.38;3.17;;;6.00;99.90;;;;;;4987089;28;20040;-78
2022/03/29 06:39:37;;;;;;;18.92;3.45;;;6.10;99.90;;;;;;4975541;28;20041;-78
2022/03/29 06:42:02;;;;;;;20.02;2.80;;;6.10;99.90;;;;;;4984446;28;20022;-78
2022/03/29 06:44:28;;;;;;;20.02;3.53;;;6.20;99.90;;;;;;4983423;28;20026;-78
2022/03/29 06:46:55;;;;;;;18.33;3.47;;;6.20;99.90;;;;;;4964692;28;20044;-78
2022/03/29 06:49:21;;;;;;;14.23;3.20;;;6.20;99.90;;;;;;4980769;28;20038;-78
2022/03/29 06:51:47;;;;;;;15.73;2.80;;;6.20;99.90;;;;;;4964569;28;20126;-79
2022/03/29 06:54:14;;;;;;;18.67;2.65;;;6.30;99.90;;;;;;4985240;28;20026;-78
2022/03/29 06:56:40;;;;;;;25.45;4.13;;;6.40;99.90;;;;;;4951083;28;20345;-79
2022/03/29 06:59:06;;;;;;;13.68;2.50;;;6.40;99.90;;;;;;4983561;28;20062;-78
2022/03/29 07:01:31;;;;;;;19.90;2.53;;;6.30;99.90;;;;;;4987776;28;20062;-79
2022/03/29 07:03:59;;;;;;;18.83;3.55;;;6.40;99.90;;;;;;4963140;28;20058;-78
2022/03/29 07:06:26;;;;;;;11.90;2.72;;;6.30;99.90;;;;;;4965776;28;20034;-79
2022/03/29 07:11:48;;;;;;;21.08;3.75;;;6.70;99.90;;;;;;4982266;28;20034;-78
2022/03/29 07:14:14;;;;;;;12.70;2.22;;;6.70;99.90;;;;;;4981665;28;20026;-78
2022/03/29 07:16:41;;;;;;;14.85;2.78;;;6.60;99.90;;;;;;4969109;28;20053;-79
2022/03/29 07:19:10;;;;;;;15.65;3.58;;;6.60;99.90;;;;;;4967690;28;20034;-78
2022/03/29 07:21:39;;;;;;;16.25;3.13;;;6.70;99.90;;;;;;4983377;28;20030;-78
2022/03/29 07:24:06;;;;;;;20.45;2.65;;;6.70;99.90;;;;;;4971540;28;20023;-79
2022/03/29 07:26:33;;;;;;;17.75;3.33;;;6.70;99.90;;;;;;4983770;28;20398;-79
2022/03/29 07:28:59;;;;;;;11.93;2.72;;;6.80;99.90;;;;;;4987171;28;20046;-78
2022/03/29 07:31:25;;;;;;;13.05;2.00;;;6.80;99.90;;;;;;4987462;28;20026;-78
2022/03/29 07:33:51;;;;;;;11.70;2.70;;;6.80;99.90;;;;;;4991031;28;20096;-78
2022/03/29 07:36:16;;;;;;;18.38;3.28;;;6.80;99.90;;;;;;4976688;28;20410;-79
2022/03/29 07:38:42;;;;;;;12.73;2.10;;;6.90;99.90;;;;;;4979922;28;20040;-78
2022/03/29 07:41:08;;;;;;;17.10;2.17;;;6.90;99.90;;;;;;4981793;28;20298;-78
2022/03/29 07:43:33;;;;;;;15.27;2.83;;;7.00;99.90;;;;;;4982763;28;20105;-78
2022/03/29 07:45:59;;;;;;;11.15;2.42;;;7.00;99.90;;;;;;4984866;28;20030;-79
2022/03/29 07:48:25;;;;;;;10.90;1.92;;;7.10;99.90;;;;;;4963355;28;20026;-78
2022/03/29 07:50:51;;;;;;;9.68;1.92;;;7.10;99.90;;;;;;4982202;28;20058;-78
2022/03/29 07:53:17;;;;;;;15.82;2.85;;;7.10;99.90;;;;;;4970371;28;20499;-78
2022/03/29 07:55:43;;;;;;;6.68;1.70;;;7.10;99.90;;;;;;4982457;28;20037;-79
2022/03/29 07:58:09;;;;;;;11.52;2.17;;;7.20;99.90;;;;;;4969653;28;20034;-79
2022/03/29 08:00:35;;;;;;;13.57;3.17;;;7.20;99.90;;;;;;4993205;28;20034;-78
2022/03/29 08:03:11;;;;;;;14.43;2.67;;;7.30;99.90;;;;;;4979659;28;20030;-79
2022/03/29 08:05:39;;;;;;;11.65;2.47;;;7.50;99.90;;;;;;4992577;28;20023;-79
2022/03/29 08:08:05;;;;;;;11.90;2.22;;;7.50;99.90;;;;;;4989803;28;20031;-78
2022/03/29 08:10:32;;;;;;;15.90;3.40;;;7.40;99.90;;;;;;4956476;28;20165;-78
2022/03/29 08:13:04;;;;;;;9.30;1.95;;;7.30;99.90;;;;;;4987803;28;20022;-78
2022/03/29 08:15:30;;;;;;;8.20;1.98;;;7.30;99.90;;;;;;4990456;28;20454;-78
2022/03/29 08:17:56;;;;;;;18.67;3.15;;;7.30;99.90;;;;;;4970539;28;20033;-78
2022/03/29 08:20:23;;;;;;;13.65;2.47;;;7.50;99.90;;;;;;4990616;28;20027;-78
2022/03/29 08:22:49;;;;;;;13.23;2.65;;;7.60;99.90;;;;;;4988754;28;20056;-79
2022/03/29 08:25:16;;;;;;;13.15;2.72;;;7.50;99.90;;;;;;4988612;28;20088;-78
2022/03/29 08:27:46;;;;;;;8.07;1.70;;;7.60;99.90;;;;;;4972077;28;20023;-79
2022/03/29 08:30:13;;;;;;;12.10;2.22;;;7.60;99.90;;;;;;4974508;28;20029;-78
2022/03/29 08:32:39;;;;;;;16.35;2.30;;;7.60;99.90;;;;;;4971744;28;20494;-79
2022/03/29 08:35:07;;;;;;;10.65;1.60;;;7.50;99.90;;;;;;4974463;28;20044;-78
2022/03/29 08:37:37;;;;;;;10.07;1.75;;;7.50;99.90;;;;;;4969730;28;20034;-78
2022/03/29 08:40:11;;;;;;;14.27;2.42;;;7.50;99.90;;;;;;4971597;28;20046;-78
2022/03/29 08:42:37;;;;;;;11.10;2.22;;;7.50;99.90;;;;;;4991775;28;20069;-78
2022/03/29 08:45:07;;;;;;;9.10;1.67;;;7.50;99.90;;;;;;4960997;28;20501;-79
2022/03/29 08:47:33;;;;;;;11.85;2.00;;;7.60;99.90;;;;;;4975150;28;20113;-79
2022/03/29 08:50:01;;;;;;;18.60;2.17;;;7.60;99.90;;;;;;4990343;28;20030;-78
2022/03/29 08:52:27;;;;;;;10.27;2.20;;;7.60;99.90;;;;;;4989831;28;20053;-78
2022/03/29 08:54:54;;;;;;;11.43;2.25;;;7.70;99.90;;;;;;4969277;28;20085;-78
2022/03/29 08:57:20;;;;;;;10.85;2.25;;;7.80;99.90;;;;;;4986413;28;20030;-78
2022/03/29 08:59:46;;;;;;;11.98;2.72;;;7.90;99.90;;;;;;4966830;28;20033;-79
2022/03/29 09:02:15;;;;;;;9.85;1.88;;;7.90;99.90;;;;;;4960533;28;20027;-79
2022/03/29 09:04:41;;;;;;;10.10;2.78;;;7.90;99.90;;;;;;4993686;28;20019;-78
2022/03/29 09:07:07;;;;;;;14.60;2.92;;;8.00;99.60;;;;;;4981676;28;20049;-78
2022/03/29 09:09:38;;;;;;;7.05;1.75;;;8.00;99.80;;;;;;4980336;28;20078;-78
2022/03/29 09:12:16;;;;;;;11.90;1.92;;;8.00;99.80;;;;;;5001341;28;20073;-78
2022/03/29 09:14:57;;;;;;;11.02;1.88;;;8.00;99.10;;;;;;4979306;28;20042;-79
2022/03/29 09:17:40;;;;;;;6.38;1.80;;;8.00;98.20;;;;;;4975935;28;20122;-78
2022/03/29 09:20:07;;;;;;;8.00;1.60;;;8.10;98.70;;;;;;4970176;28;20026;-78
2022/03/29 09:22:55;;;;;;;15.43;2.42;;;8.20;98.10;;;;;;4972557;28;20425;-79
2022/03/29 09:25:38;;;;;;;10.75;1.73;;;8.20;97.80;;;;;;4991708;28;20037;-78
2022/03/29 09:28:05;;;;;;;13.57;1.98;;;8.20;97.60;;;;;;4953897;28;20037;-79
2022/03/29 09:30:40;;;;;;;9.88;1.92;;;8.20;97.60;;;;;;4966660;28;20030;-78
2022/03/29 09:33:15;;;;;;;8.25;2.17;;;8.30;97.40;;;;;;4968485;28;20030;-78
2022/03/29 09:36:04;;;;;;;11.30;2.50;;;8.40;97.50;;;;;;4969133;28;20026;-78
2022/03/29 09:38:32;;;;;;;16.92;2.13;;;8.50;97.50;;;;;;4983305;28;20027;-79
2022/03/29 09:40:59;;;;;;;9.43;2.58;;;8.50;96.80;;;;;;4953559;28;20041;-79
2022/03/29 09:43:26;;;;;;;15.52;2.33;;;8.60;96.30;;;;;;4991790;28;20553;-79
2022/03/29 09:45:55;;;;;;;8.82;2.20;;;8.60;95.60;;;;;;4976621;28;20105;-78
2022/03/29 09:48:32;;;;;;;9.68;2.25;;;8.50;95.80;;;;;;4990508;28;20027;-78
2022/03/29 09:51:10;;;;;;;12.27;1.85;;;8.50;96.10;;;;;;4988653;28;20023;-79
2022/03/29 09:53:51;;;;;;;14.25;2.28;;;8.60;95.50;;;;;;4982709;28;20391;-79
2022/03/29 09:56:24;;;;;;;9.77;2.05;;;8.70;94.80;;;;;;4972440;28;20034;-78
2022/03/29 09:59:02;;;;;;;13.40;2.35;;;8.80;94.20;;;;;;4981323;28;20493;-78
2022/03/29 10:01:28;;;;;;;11.80;2.15;;;8.80;94.50;;;;;;4976130;28;20376;-78
2022/03/29 10:03:55;;;;;;;10.48;2.03;;;8.80;94.50;;;;;;4966551;28;20045;-79
2022/03/29 10:06:24;;;;;;;12.27;2.03;;;8.80;94.60;;;;;;4967881;28;20105;-81
2022/03/29 10:11:38;;;;;;;9.85;2.03;;;8.90;93.70;;;;;;4983211;28;20046;-78
2022/03/29 10:14:06;;;;;;;14.98;2.20;;;8.90;93.90;;;;;;4986385;28;20035;-78
2022/03/29 10:16:32;;;;;;;8.63;1.95;;;9.00;93.90;;;;;;4981255;28;20046;-78
2022/03/29 10:18:59;;;;;;;14.30;2.72;;;9.20;93.90;;;;;;4986605;28;20031;-79
2022/03/29 10:21:27;;;;;;;8.95;2.33;;;9.30;93.10;;;;;;4963892;28;20034;-78
2022/03/29 10:23:53;;;;;;;6.90;1.65;;;9.20;92.70;;;;;;4971306;28;20081;-76
2022/03/29 10:26:22;;;;;;;9.80;1.70;;;9.30;92.50;;;;;;4968758;28;20034;-79
2022/03/29 10:28:48;;;;;;;14.10;2.15;;;9.40;92.10;;;;;;4971867;28;20445;-78
2022/03/29 10:31:33;;;;;;;7.97;1.95;;;9.50;92.30;;;;;;4968325;28;20033;-79
2022/03/29 10:34:16;;;;;;;9.85;1.92;;;9.70;92.00;;;;;;4968580;28;20053;-79
2022/03/29 10:37:03;;;;;;;8.60;1.90;;;9.80;90.10;;;;;;4971317;28;20510;-78
2022/03/29 10:39:52;;;;;;;8.57;1.83;;;9.90;89.20;;;;;;4953608;28;20034;-79
2022/03/29 10:42:33;;;;;;;8.00;2.00;;;9.80;90.10;;;;;;4991233;28;20459;-77
2022/03/29 10:45:24;;;;;;;10.73;1.88;;;9.90;89.80;;;;;;4967195;28;20023;-78
2022/03/29 10:48:06;;;;;;;16.45;2.42;;;9.90;88.30;;;;;;4955431;28;20599;-76
2022/03/29 10:50:46;;;;;;;8.57;1.52;;;9.90;87.30;;;;;;4983810;28;20430;-77
2022/03/29 10:53:31;;;;;;;7.78;1.65;;;9.90;82.00;;;;;;4950654;28;20027;-78
2022/03/29 10:56:15;;;;;;;8.50;1.70;;;9.80;82.10;;;;;;4966274;28;20043;-78
2022/03/29 10:59:14;;;;;;;10.18;1.65;;;9.70;83.40;;;;;;4970201;28;20041;-77
2022/03/29 11:01:42;;;;;;;9.48;1.40;;;9.80;82.80;;;;;;4932039;28;20525;-77
2022/03/29 11:04:15;;;;;;;10.32;1.70;;;9.90;84.20;;;;;;4966554;28;20034;-77
2022/03/29 11:07:06;;;;;;;10.55;2.20;;;10.20;83.60;;;;;;4971644;28;20031;-77
2022/03/29 11:09:34;;;;;;;10.00;2.03;;;11.10;79.50;;;;;;4968416;28;20048;-76
2022/03/29 11:12:00;;;;;;;7.13;1.58;;;12.50;76.30;;;;;;4983110;28;20545;-76
2022/03/29 11:14:30;;;;;;;9.07;1.70;;;14.20;68.40;;;;;;4974988;28;20569;-77
2022/03/29 11:17:13;;;;;;;10.15;1.52;;;15.50;64.00;;;;;;4965497;28;20029;-76
2022/03/29 11:19:47;;;;;;;6.10;1.63;;;16.90;58.10;;;;;;4950754;28;20034;-77
2022/03/29 11:22:41;;;;;;;6.65;1.75;;;18.50;56.30;;;;;;4965366;28;20093;-77
2022/03/29 11:25:09;;;;;;;8.05;1.52;;;19.70;50.00;;;;;;4965576;28;20105;-76
2022/03/29 11:27:36;;;;;;;11.15;2.20;;;20.80;46.90;;;;;;4966079;28;20467;-77
2022/03/29 11:30:10;;;;;;;11.10;2.38;;;21.60;45.40;;;;;;4966820;28;20608;-77
2022/03/29 11:32:40;;;;;;;8.43;1.67;;;20.90;42.60;;;;;;4965404;28;20231;-75
2022/03/29 11:35:07;;;;;;;9.55;2.00;;;19.80;44.50;;;;;;4982108;28;20069;-76
2022/03/29 11:37:40;;;;;;;6.65;1.65;;;19.40;44.00;;;;;;4980610;28;20045;-75
2022/03/29 11:40:11;;;;;;;7.20;2.03;;;18.50;46.20;;;;;;4964737;28;20031;-76
2022/03/29 11:42:50;;;;;;;7.97;1.55;;;18.20;45.50;;;;;;4952802;28;20101;-78
2022/03/29 11:45:18;;;;;;;9.18;1.77;;;17.40;45.50;;;;;;4964840;28;20157;-78
2022/03/29 11:48:04;;;;;;;8.82;1.60;;;16.90;49.60;;;;;;4949199;28;20487;-75
2022/03/29 11:50:52;;;;;;;76.18;25.35;;;16.50;51.50;;;;;;4966230;28;20555;-78
2022/03/29 11:53:22;;;;;;;6.82;2.00;;;16.50;53.40;;;;;;4981380;28;20031;-77
2022/03/29 11:56:11;;;;;;;7.00;1.80;;;16.30;49.70;;;;;;4984769;28;20045;-77
2022/03/29 11:58:45;;;;;;;8.50;1.30;;;16.10;49.20;;;;;;4990348;28;20042;-77
2022/03/29 12:01:14;;;;;;;5.75;1.45;;;15.60;50.10;;;;;;4974861;28;20018;-77
2022/03/29 12:03:42;;;;;;;7.13;1.83;;;15.40;51.30;;;;;;4990127;28;20023;-78
2022/03/29 12:06:12;;;;;;;5.90;1.98;;;15.10;50.70;;;;;;4976764;28;20042;-77
2022/03/29 12:08:50;;;;;;;6.85;2.13;;;14.70;51.10;;;;;;4959007;28;20026;-77
2022/03/29 12:11:19;;;;;;;17.73;5.45;;;14.40;51.20;;;;;;4990376;28;20047;-77
2022/03/29 12:13:46;;;;;;;63.90;21.40;;;14.30;52.30;;;;;;4986518;28;20090;-78
2022/03/29 12:16:23;;;;;;;26.55;9.27;;;14.70;55.90;;;;;;4974771;28;20034;-77
2022/03/29 12:18:50;;;;;;;10.05;1.65;;;15.20;52.50;;;;;;4976736;28;20034;-78
2022/03/29 12:21:18;;;;;;;7.97;1.55;;;15.10;51.20;;;;;;4979356;28;20026;-78
2022/03/29 12:23:46;;;;;;;11.27;3.05;;;15.10;51.70;;;;;;4977713;28;20026;-78
2022/03/29 12:26:13;;;;;;;8.18;2.28;;;15.10;50.30;;;;;;4995155;28;20129;-77
2022/03/29 12:28:40;;;;;;;7.60;2.20;;;15.50;50.40;;;;;;4974750;28;20085;-76
2022/03/29 12:31:12;;;;;;;6.47;2.17;;;16.20;49.10;;;;;;4961679;28;20433;-76
2022/03/29 12:33:38;;;;;;;;;;;16.60;48.90;;;;;;4961956;28;20031;-79
2022/03/29 12:36:15;;;;;;;6.75;1.60;;;17.10;47.20;;;;;;4977934;28;19913;-79
2022/03/29 12:38:45;;;;;;;8.40;1.33;;;17.00;46.90;;;;;;4991927;28;20030;-78
2022/03/29 12:41:12;;;;;;;8.10;1.20;;;17.10;46.60;;;;;;4977984;28;20027;-77
2022/03/29 12:43:39;;;;;;;5.25;1.50;;;17.10;46.00;;;;;;4977193;28;20601;-77
2022/03/29 12:46:09;;;;;;;7.93;2.70;;;16.70;46.90;;;;;;4995713;28;20109;-78
2022/03/29 12:48:38;;;;;;;6.38;1.50;;;15.80;47.90;;;;;;4976422;28;20080;-79
2022/03/29 12:51:06;;;;;;;7.13;2.03;;;15.00;47.30;;;;;;4997006;28;20105;-77
2022/03/29 12:53:33;;;;;;;114.72;61.75;;;14.20;47.60;;;;;;4976320;28;20034;-77
2022/03/29 12:56:00;;;;;;;103.60;52.17;;;13.60;48.40;;;;;;4989054;28;20042;-77
2022/03/29 12:58:31;;;;;;;48.58;25.70;;;13.30;49.30;;;;;;4986400;28;20637;-77
2022/03/29 13:00:57;;;;;;;13.47;2.37;;;13.00;51.30;;;;;;4966148;28;20046;-77
2022/03/29 13:03:23;;;;;;;8.25;1.75;;;12.60;53.30;;;;;;4978400;28;20517;-77